Terminal Aerodrome Forecast
Issued by NWS Lake Charles, LA

Home | Current Version | Previous Version | Text Only | Print | Product List | Glossary On
Versions: 1 2 3 4 5 6 7 8 9 10 11 12 13 14 15 16 17
618
FTUS44 KLCH 230520
TAFLFT
TAF
KLFT 230520Z 2306/2406 34014G21KT P6SM SCT025 BKN070
     FM230900 34012G20KT P6SM BKN025 BKN080
     FM231800 33015G23KT P6SM BKN035
     FM240100 35004KT P6SM SKC=

USA.gov is the U.S. government's official web portal to all federal, state and local government web resources and services.